Terminal Aerodrome Forecast
Issued by NWS

Current Version | Previous Version | Graphics & Text | Print | Product List | Glossary On
Versions: 1 2 3 4 5 6 7 8 9 10 11 12 13
000
FTUS41 KILN 280500
TAFLCK
TAF
KLCK 280536Z 2806/2906 03004KT P6SM SCT250
      TEMPO 2810/2813 5SM BR
     FM281400 05005KT P6SM SCT100
     FM282300 08003KT P6SM SCT250=

USA.gov is the U.S. government's official web portal to all federal, state and local government web resources and services.